sensor_id;sensor_type;location;lat;lon;timestamp;P1;durP1;ratioP1;P2;durP2;ratioP2
70216;SDS011;65567;55.684;37.570;2023-04-09T00:01:50;13.98;;;9.38;;
70216;SDS011;65567;55.684;37.570;2023-04-09T00:04:15;11.93;;;7.78;;
70216;SDS011;65567;55.684;37.570;2023-04-09T00:06:41;12.80;;;8.57;;
70216;SDS011;65567;55.684;37.570;2023-04-09T00:09:07;10.20;;;6.28;;
70216;SDS011;65567;55.684;37.570;2023-04-09T00:11:33;16.13;;;9.00;;
70216;SDS011;65567;55.684;37.570;2023-04-09T00:13:59;10.43;;;6.88;;
70216;SDS011;65567;55.684;37.570;2023-04-09T00:16:25;12.40;;;8.10;;
70216;SDS011;65567;55.684;37.570;2023-04-09T00:18:51;13.90;;;6.65;;
70216;SDS011;65567;55.684;37.570;2023-04-09T00:21:16;12.82;;;7.28;;
70216;SDS011;65567;55.684;37.570;2023-04-09T00:23:42;7.63;;;3.05;;
70216;SDS011;65567;55.684;37.570;2023-04-09T00:26:08;6.13;;;3.63;;
70216;SDS011;65567;55.684;37.570;2023-04-09T00:28:34;10.68;;;7.65;;
70216;SDS011;65567;55.684;37.570;2023-04-09T00:31:01;16.77;;;8.10;;
70216;SDS011;65567;55.684;37.570;2023-04-09T00:33:26;17.85;;;9.70;;
70216;SDS011;65567;55.684;37.570;2023-04-09T00:35:52;11.73;;;6.18;;
70216;SDS011;65567;55.684;37.570;2023-04-09T00:38:18;12.30;;;7.07;;
70216;SDS011;65567;55.684;37.570;2023-04-09T00:40:47;10.27;;;5.65;;
70216;SDS011;65567;55.684;37.570;2023-04-09T00:43:14;12.02;;;7.68;;
70216;SDS011;65567;55.684;37.570;2023-04-09T00:45:40;8.80;;;5.60;;
70216;SDS011;65567;55.684;37.570;2023-04-09T00:48:07;13.77;;;7.78;;
70216;SDS011;65567;55.684;37.570;2023-04-09T00:50:33;10.15;;;5.80;;
70216;SDS011;65567;55.684;37.570;2023-04-09T00:52:59;14.23;;;8.40;;
70216;SDS011;65567;55.684;37.570;2023-04-09T00:55:25;11.43;;;5.97;;
70216;SDS011;65567;55.684;37.570;2023-04-09T00:57:51;13.52;;;8.50;;
70216;SDS011;65567;55.684;37.570;2023-04-09T01:00:17;11.25;;;7.60;;
70216;SDS011;65567;55.684;37.570;2023-04-09T01:02:43;12.98;;;7.38;;
70216;SDS011;65567;55.684;37.570;2023-04-09T01:05:10;12.25;;;6.93;;
70216;SDS011;65567;55.684;37.570;2023-04-09T01:07:48;14.55;;;8.52;;
70216;SDS011;65567;55.684;37.570;2023-04-09T01:10:40;13.43;;;6.85;;
70216;SDS011;65567;55.684;37.570;2023-04-09T01:13:12;15.30;;;9.18;;
70216;SDS011;65567;55.684;37.570;2023-04-09T01:15:44;12.45;;;8.40;;
70216;SDS011;65567;55.684;37.570;2023-04-09T01:20:48;15.45;;;8.60;;
70216;SDS011;65567;55.684;37.570;2023-04-09T01:28:55;15.07;;;9.80;;
70216;SDS011;65567;55.684;37.570;2023-04-09T01:31:31;15.85;;;9.82;;
70216;SDS011;65567;55.684;37.570;2023-04-09T01:34:00;17.23;;;10.43;;
70216;SDS011;65567;55.684;37.570;2023-04-09T01:36:28;16.15;;;10.57;;
70216;SDS011;65567;55.684;37.570;2023-04-09T01:38:56;18.90;;;10.57;;
70216;SDS011;65567;55.684;37.570;2023-04-09T01:41:24;15.20;;;9.77;;
70216;SDS011;65567;55.684;37.570;2023-04-09T01:43:51;15.90;;;9.98;;
70216;SDS011;65567;55.684;37.570;2023-04-09T01:46:21;18.38;;;11.30;;
70216;SDS011;65567;55.684;37.570;2023-04-09T01:51:14;15.00;;;10.20;;
70216;SDS011;65567;55.684;37.570;2023-04-09T01:53:41;14.93;;;9.93;;
70216;SDS011;65567;55.684;37.570;2023-04-09T01:56:08;11.98;;;8.10;;
70216;SDS011;65567;55.684;37.570;2023-04-09T01:58:34;16.83;;;11.13;;
70216;SDS011;65567;55.684;37.570;2023-04-09T02:01:13;18.17;;;11.25;;
70216;SDS011;65567;55.684;37.570;2023-04-09T02:03:45;16.05;;;11.68;;
70216;SDS011;65567;55.684;37.570;2023-04-09T02:06:17;15.50;;;8.98;;
70216;SDS011;65567;55.684;37.570;2023-04-09T02:09:06;17.83;;;10.18;;
70216;SDS011;65567;55.684;37.570;2023-04-09T02:11:35;16.60;;;9.82;;
70216;SDS011;65567;55.684;37.570;2023-04-09T02:14:05;11.98;;;7.22;;
70216;SDS011;65567;55.684;37.570;2023-04-09T02:16:33;16.55;;;9.38;;
70216;SDS011;65567;55.684;37.570;2023-04-09T02:18:59;15.88;;;9.63;;
70216;SDS011;65567;55.684;37.570;2023-04-09T02:21:25;19.98;;;11.50;;
70216;SDS011;65567;55.684;37.570;2023-04-09T02:23:53;18.90;;;11.60;;
70216;SDS011;65567;55.684;37.570;2023-04-09T02:26:22;17.60;;;11.07;;
70216;SDS011;65567;55.684;37.570;2023-04-09T02:28:48;18.77;;;11.25;;
70216;SDS011;65567;55.684;37.570;2023-04-09T02:31:14;17.50;;;12.23;;
70216;SDS011;65567;55.684;37.570;2023-04-09T02:33:40;15.70;;;10.48;;
70216;SDS011;65567;55.684;37.570;2023-04-09T02:36:09;20.23;;;11.52;;
70216;SDS011;65567;55.684;37.570;2023-04-09T02:38:38;15.48;;;11.82;;
70216;SDS011;65567;55.684;37.570;2023-04-09T02:41:06;18.77;;;12.05;;
70216;SDS011;65567;55.684;37.570;2023-04-09T02:43:31;16.95;;;12.02;;
70216;SDS011;65567;55.684;37.570;2023-04-09T02:45:57;16.63;;;11.98;;
70216;SDS011;65567;55.684;37.570;2023-04-09T02:48:23;18.92;;;8.88;;
70216;SDS011;65567;55.684;37.570;2023-04-09T02:50:49;19.30;;;12.20;;
70216;SDS011;65567;55.684;37.570;2023-04-09T02:53:15;19.02;;;11.02;;
70216;SDS011;65567;55.684;37.570;2023-04-09T02:55:40;18.75;;;12.20;;
70216;SDS011;65567;55.684;37.570;2023-04-09T02:58:06;25.52;;;12.05;;
70216;SDS011;65567;55.684;37.570;2023-04-09T03:00:32;18.70;;;11.93;;
70216;SDS011;65567;55.684;37.570;2023-04-09T03:02:58;25.38;;;12.43;;
70216;SDS011;65567;55.684;37.570;2023-04-09T03:05:23;18.63;;;12.82;;
70216;SDS011;65567;55.684;37.570;2023-04-09T03:07:49;18.15;;;11.98;;
70216;SDS011;65567;55.684;37.570;2023-04-09T03:10:15;17.98;;;12.52;;
70216;SDS011;65567;55.684;37.570;2023-04-09T03:12:41;20.88;;;11.90;;
70216;SDS011;65567;55.684;37.570;2023-04-09T03:15:09;22.42;;;11.88;;
70216;SDS011;65567;55.684;37.570;2023-04-09T03:17:35;19.10;;;11.43;;
70216;SDS011;65567;55.684;37.570;2023-04-09T03:20:01;22.98;;;13.23;;
70216;SDS011;65567;55.684;37.570;2023-04-09T03:22:27;19.83;;;11.95;;
70216;SDS011;65567;55.684;37.570;2023-04-09T03:24:53;19.63;;;12.68;;
70216;SDS011;65567;55.684;37.570;2023-04-09T03:27:20;20.90;;;11.32;;
70216;SDS011;65567;55.684;37.570;2023-04-09T03:29:46;22.60;;;12.30;;
70216;SDS011;65567;55.684;37.570;2023-04-09T03:32:12;19.08;;;12.27;;
70216;SDS011;65567;55.684;37.570;2023-04-09T03:34:37;19.13;;;12.23;;
70216;SDS011;65567;55.684;37.570;2023-04-09T03:37:03;16.80;;;11.32;;
70216;SDS011;65567;55.684;37.570;2023-04-09T03:39:29;18.23;;;10.55;;
70216;SDS011;65567;55.684;37.570;2023-04-09T03:41:56;18.70;;;12.20;;
70216;SDS011;65567;55.684;37.570;2023-04-09T03:44:23;19.77;;;11.63;;
70216;SDS011;65567;55.684;37.570;2023-04-09T03:46:49;20.38;;;12.43;;
70216;SDS011;65567;55.684;37.570;2023-04-09T03:49:15;20.52;;;13.02;;
70216;SDS011;65567;55.684;37.570;2023-04-09T03:51:41;16.30;;;11.35;;
70216;SDS011;65567;55.684;37.570;2023-04-09T03:54:08;18.20;;;12.35;;
70216;SDS011;65567;55.684;37.570;2023-04-09T03:56:34;17.75;;;11.95;;
70216;SDS011;65567;55.684;37.570;2023-04-09T03:59:00;20.38;;;11.80;;
70216;SDS011;65567;55.684;37.570;2023-04-09T04:01:26;18.95;;;11.50;;
70216;SDS011;65567;55.684;37.570;2023-04-09T04:03:51;14.77;;;8.70;;
70216;SDS011;65567;55.684;37.570;2023-04-09T04:06:17;17.30;;;10.82;;
70216;SDS011;65567;55.684;37.570;2023-04-09T04:08:43;20.63;;;11.30;;
70216;SDS011;65567;55.684;37.570;2023-04-09T04:11:09;21.25;;;12.38;;
70216;SDS011;65567;55.684;37.570;2023-04-09T04:13:35;20.90;;;12.40;;
70216;SDS011;65567;55.684;37.570;2023-04-09T04:16:01;23.60;;;11.35;;
70216;SDS011;65567;55.684;37.570;2023-04-09T04:18:26;19.20;;;12.07;;
70216;SDS011;65567;55.684;37.570;2023-04-09T04:20:52;16.88;;;11.65;;
70216;SDS011;65567;55.684;37.570;2023-04-09T04:23:18;18.25;;;12.60;;
70216;SDS011;65567;55.684;37.570;2023-04-09T04:25:44;16.02;;;10.50;;
70216;SDS011;65567;55.684;37.570;2023-04-09T04:28:09;19.88;;;12.40;;
70216;SDS011;65567;55.684;37.570;2023-04-09T04:30:35;17.55;;;11.88;;
70216;SDS011;65567;55.684;37.570;2023-04-09T04:33:01;17.30;;;11.98;;
70216;SDS011;65567;55.684;37.570;2023-04-09T04:35:27;17.45;;;12.50;;
70216;SDS011;65567;55.684;37.570;2023-04-09T04:37:53;19.38;;;12.60;;
70216;SDS011;65567;55.684;37.570;2023-04-09T04:40:18;19.77;;;12.25;;
70216;SDS011;65567;55.684;37.570;2023-04-09T04:42:44;19.20;;;13.15;;
70216;SDS011;65567;55.684;37.570;2023-04-09T04:45:10;22.65;;;12.43;;
70216;SDS011;65567;55.684;37.570;2023-04-09T04:47:36;20.10;;;12.55;;
70216;SDS011;65567;55.684;37.570;2023-04-09T04:50:02;18.50;;;12.57;;
70216;SDS011;65567;55.684;37.570;2023-04-09T04:52:28;17.50;;;12.55;;
70216;SDS011;65567;55.684;37.570;2023-04-09T04:54:54;17.55;;;12.85;;
70216;SDS011;65567;55.684;37.570;2023-04-09T04:57:19;22.00;;;14.23;;
70216;SDS011;65567;55.684;37.570;2023-04-09T04:59:45;19.10;;;12.77;;
70216;SDS011;65567;55.684;37.570;2023-04-09T05:02:11;15.38;;;11.40;;
70216;SDS011;65567;55.684;37.570;2023-04-09T05:04:37;19.20;;;13.20;;
70216;SDS011;65567;55.684;37.570;2023-04-09T05:07:03;21.08;;;13.35;;
70216;SDS011;65567;55.684;37.570;2023-04-09T05:09:29;19.50;;;12.25;;
70216;SDS011;65567;55.684;37.570;2023-04-09T05:11:55;19.60;;;13.63;;
70216;SDS011;65567;55.684;37.570;2023-04-09T05:14:21;19.75;;;12.57;;
70216;SDS011;65567;55.684;37.570;2023-04-09T05:16:48;18.73;;;12.57;;
70216;SDS011;65567;55.684;37.570;2023-04-09T05:19:14;18.33;;;12.18;;
70216;SDS011;65567;55.684;37.570;2023-04-09T05:21:39;20.17;;;12.40;;
70216;SDS011;65567;55.684;37.570;2023-04-09T05:24:05;17.23;;;12.75;;
70216;SDS011;65567;55.684;37.570;2023-04-09T05:26:31;20.60;;;13.85;;
70216;SDS011;65567;55.684;37.570;2023-04-09T05:28:57;20.98;;;13.57;;
70216;SDS011;65567;55.684;37.570;2023-04-09T05:31:23;18.40;;;12.10;;
70216;SDS011;65567;55.684;37.570;2023-04-09T05:33:49;25.70;;;14.52;;
70216;SDS011;65567;55.684;37.570;2023-04-09T05:36:17;20.42;;;13.82;;
70216;SDS011;65567;55.684;37.570;2023-04-09T05:38:45;21.52;;;12.90;;
70216;SDS011;65567;55.684;37.570;2023-04-09T05:41:11;18.27;;;14.05;;
70216;SDS011;65567;55.684;37.570;2023-04-09T05:43:37;29.38;;;13.85;;
70216;SDS011;65567;55.684;37.570;2023-04-09T05:46:03;42.90;;;18.05;;
70216;SDS011;65567;55.684;37.570;2023-04-09T05:48:29;73.60;;;20.45;;
70216;SDS011;65567;55.684;37.570;2023-04-09T05:50:55;33.90;;;14.15;;
70216;SDS011;65567;55.684;37.570;2023-04-09T05:53:21;55.53;;;17.60;;
70216;SDS011;65567;55.684;37.570;2023-04-09T05:55:50;24.08;;;14.10;;
70216;SDS011;65567;55.684;37.570;2023-04-09T05:58:16;44.08;;;14.70;;
70216;SDS011;65567;55.684;37.570;2023-04-09T06:00:45;23.60;;;14.05;;
70216;SDS011;65567;55.684;37.570;2023-04-09T06:03:11;28.55;;;14.52;;
70216;SDS011;65567;55.684;37.570;2023-04-09T06:05:37;26.20;;;13.88;;
70216;SDS011;65567;55.684;37.570;2023-04-09T06:08:03;23.55;;;13.23;;
70216;SDS011;65567;55.684;37.570;2023-04-09T06:10:32;17.10;;;11.90;;
70216;SDS011;65567;55.684;37.570;2023-04-09T06:12:58;19.90;;;11.52;;
70216;SDS011;65567;55.684;37.570;2023-04-09T06:15:24;26.15;;;14.30;;
70216;SDS011;65567;55.684;37.570;2023-04-09T06:17:50;23.52;;;13.00;;
70216;SDS011;65567;55.684;37.570;2023-04-09T06:20:16;41.72;;;13.63;;
70216;SDS011;65567;55.684;37.570;2023-04-09T06:22:41;25.33;;;12.60;;
70216;SDS011;65567;55.684;37.570;2023-04-09T06:25:07;23.55;;;13.25;;
70216;SDS011;65567;55.684;37.570;2023-04-09T06:27:33;24.58;;;13.85;;
70216;SDS011;65567;55.684;37.570;2023-04-09T06:29:59;19.25;;;12.75;;
70216;SDS011;65567;55.684;37.570;2023-04-09T06:32:25;34.50;;;14.82;;
70216;SDS011;65567;55.684;37.570;2023-04-09T06:34:51;38.75;;;15.10;;
70216;SDS011;65567;55.684;37.570;2023-04-09T06:37:17;42.10;;;16.10;;
70216;SDS011;65567;55.684;37.570;2023-04-09T06:39:42;27.85;;;14.23;;
70216;SDS011;65567;55.684;37.570;2023-04-09T06:42:08;24.67;;;12.82;;
70216;SDS011;65567;55.684;37.570;2023-04-09T06:44:34;28.73;;;14.15;;
70216;SDS011;65567;55.684;37.570;2023-04-09T06:47:01;26.20;;;13.55;;
70216;SDS011;65567;55.684;37.570;2023-04-09T06:49:26;18.08;;;12.00;;
70216;SDS011;65567;55.684;37.570;2023-04-09T06:51:53;27.08;;;13.77;;
70216;SDS011;65567;55.684;37.570;2023-04-09T06:54:20;20.15;;;12.15;;
70216;SDS011;65567;55.684;37.570;2023-04-09T06:56:45;20.00;;;9.80;;
70216;SDS011;65567;55.684;37.570;2023-04-09T06:59:11;23.23;;;13.30;;
70216;SDS011;65567;55.684;37.570;2023-04-09T07:01:37;19.52;;;13.02;;
70216;SDS011;65567;55.684;37.570;2023-04-09T07:04:04;19.13;;;11.73;;
70216;SDS011;65567;55.684;37.570;2023-04-09T07:06:30;18.17;;;11.80;;
70216;SDS011;65567;55.684;37.570;2023-04-09T07:08:56;20.05;;;11.98;;
70216;SDS011;65567;55.684;37.570;2023-04-09T07:11:22;24.80;;;11.32;;
70216;SDS011;65567;55.684;37.570;2023-04-09T07:13:48;17.45;;;11.90;;
70216;SDS011;65567;55.684;37.570;2023-04-09T07:16:13;21.35;;;11.35;;
70216;SDS011;65567;55.684;37.570;2023-04-09T07:18:39;16.88;;;10.40;;
70216;SDS011;65567;55.684;37.570;2023-04-09T07:21:05;17.98;;;10.27;;
70216;SDS011;65567;55.684;37.570;2023-04-09T07:23:34;19.15;;;12.07;;
70216;SDS011;65567;55.684;37.570;2023-04-09T07:26:03;17.70;;;12.50;;
70216;SDS011;65567;55.684;37.570;2023-04-09T07:28:30;15.80;;;11.60;;
70216;SDS011;65567;55.684;37.570;2023-04-09T07:30:56;19.33;;;10.98;;
70216;SDS011;65567;55.684;37.570;2023-04-09T07:33:22;26.70;;;13.00;;
70216;SDS011;65567;55.684;37.570;2023-04-09T07:35:48;24.83;;;12.23;;
70216;SDS011;65567;55.684;37.570;2023-04-09T07:38:14;18.10;;;11.85;;
70216;SDS011;65567;55.684;37.570;2023-04-09T07:40:40;26.38;;;12.27;;
70216;SDS011;65567;55.684;37.570;2023-04-09T07:43:06;21.88;;;11.20;;
70216;SDS011;65567;55.684;37.570;2023-04-09T07:45:32;19.63;;;11.15;;
70216;SDS011;65567;55.684;37.570;2023-04-09T07:47:58;15.50;;;9.98;;
70216;SDS011;65567;55.684;37.570;2023-04-09T07:50:24;18.33;;;9.90;;
70216;SDS011;65567;55.684;37.570;2023-04-09T07:52:50;18.90;;;10.02;;
70216;SDS011;65567;55.684;37.570;2023-04-09T07:55:16;20.25;;;10.35;;
70216;SDS011;65567;55.684;37.570;2023-04-09T07:57:42;17.83;;;10.35;;
70216;SDS011;65567;55.684;37.570;2023-04-09T08:00:09;23.55;;;10.77;;
70216;SDS011;65567;55.684;37.570;2023-04-09T08:02:36;7.07;;;4.10;;
70216;SDS011;65567;55.684;37.570;2023-04-09T08:05:02;12.88;;;8.45;;
70216;SDS011;65567;55.684;37.570;2023-04-09T08:07:28;13.95;;;8.48;;
70216;SDS011;65567;55.684;37.570;2023-04-09T08:09:54;14.85;;;9.63;;
70216;SDS011;65567;55.684;37.570;2023-04-09T08:12:20;16.30;;;9.18;;
70216;SDS011;65567;55.684;37.570;2023-04-09T08:14:46;14.43;;;9.90;;
70216;SDS011;65567;55.684;37.570;2023-04-09T08:17:12;18.55;;;9.55;;
70216;SDS011;65567;55.684;37.570;2023-04-09T08:19:38;11.73;;;8.23;;
70216;SDS011;65567;55.684;37.570;2023-04-09T08:22:04;11.70;;;7.82;;
70216;SDS011;65567;55.684;37.570;2023-04-09T08:24:30;11.27;;;7.35;;
70216;SDS011;65567;55.684;37.570;2023-04-09T08:26:56;13.93;;;6.97;;
70216;SDS011;65567;55.684;37.570;2023-04-09T08:29:22;5.05;;;3.55;;
70216;SDS011;65567;55.684;37.570;2023-04-09T08:31:48;12.20;;;6.60;;
70216;SDS011;65567;55.684;37.570;2023-04-09T08:34:15;12.27;;;6.85;;
70216;SDS011;65567;55.684;37.570;2023-04-09T08:39:11;7.13;;;4.20;;
70216;SDS011;65567;55.684;37.570;2023-04-09T08:41:38;9.18;;;5.53;;
70216;SDS011;65567;55.684;37.570;2023-04-09T08:44:08;12.30;;;6.38;;
70216;SDS011;65567;55.684;37.570;2023-04-09T08:46:34;14.68;;;6.82;;
70216;SDS011;65567;55.684;37.570;2023-04-09T08:49:00;7.85;;;5.68;;
70216;SDS011;65567;55.684;37.570;2023-04-09T08:51:27;14.65;;;7.15;;
70216;SDS011;65567;55.684;37.570;2023-04-09T08:53:54;25.02;;;7.88;;
70216;SDS011;65567;55.684;37.570;2023-04-09T08:56:21;9.75;;;6.15;;
70216;SDS011;65567;55.684;37.570;2023-04-09T08:58:48;9.15;;;6.07;;
70216;SDS011;65567;55.684;37.570;2023-04-09T09:01:20;5.55;;;4.47;;
70216;SDS011;65567;55.684;37.570;2023-04-09T09:04:08;9.52;;;6.28;;
70216;SDS011;65567;55.684;37.570;2023-04-09T09:06:37;10.45;;;6.88;;
70216;SDS011;65567;55.684;37.570;2023-04-09T09:09:14;10.88;;;6.82;;
70216;SDS011;65567;55.684;37.570;2023-04-09T09:11:42;9.32;;;7.20;;
70216;SDS011;65567;55.684;37.570;2023-04-09T09:14:13;11.80;;;7.10;;
70216;SDS011;65567;55.684;37.570;2023-04-09T09:16:42;12.45;;;8.02;;
70216;SDS011;65567;55.684;37.570;2023-04-09T09:19:09;9.73;;;7.82;;
70216;SDS011;65567;55.684;37.570;2023-04-09T09:22:04;12.18;;;7.63;;
70216;SDS011;65567;55.684;37.570;2023-04-09T09:24:49;11.85;;;7.43;;
70216;SDS011;65567;55.684;37.570;2023-04-09T09:27:35;10.47;;;6.97;;
70216;SDS011;65567;55.684;37.570;2023-04-09T09:30:04;11.13;;;7.35;;
70216;SDS011;65567;55.684;37.570;2023-04-09T09:32:31;22.27;;;8.18;;
70216;SDS011;65567;55.684;37.570;2023-04-09T09:35:06;15.60;;;8.27;;
70216;SDS011;65567;55.684;37.570;2023-04-09T09:37:32;12.05;;;7.38;;
70216;SDS011;65567;55.684;37.570;2023-04-09T09:39:59;8.07;;;5.50;;
70216;SDS011;65567;55.684;37.570;2023-04-09T09:42:25;9.45;;;6.95;;
70216;SDS011;65567;55.684;37.570;2023-04-09T09:44:53;11.90;;;6.53;;
70216;SDS011;65567;55.684;37.570;2023-04-09T09:47:20;11.35;;;7.03;;
70216;SDS011;65567;55.684;37.570;2023-04-09T09:49:47;14.07;;;7.72;;
70216;SDS011;65567;55.684;37.570;2023-04-09T09:52:19;11.90;;;6.87;;
70216;SDS011;65567;55.684;37.570;2023-04-09T09:54:50;13.18;;;6.88;;
70216;SDS011;65567;55.684;37.570;2023-04-09T09:57:18;9.38;;;7.20;;
70216;SDS011;65567;55.684;37.570;2023-04-09T09:59:54;8.07;;;5.38;;
70216;SDS011;65567;55.684;37.570;2023-04-09T10:02:25;10.43;;;6.55;;
70216;SDS011;65567;55.684;37.570;2023-04-09T10:04:55;10.90;;;6.60;;
70216;SDS011;65567;55.684;37.570;2023-04-09T10:07:25;13.80;;;7.75;;
70216;SDS011;65567;55.684;37.570;2023-04-09T10:09:53;11.45;;;7.38;;
70216;SDS011;65567;55.684;37.570;2023-04-09T10:12:21;5.55;;;3.38;;
70216;SDS011;65567;55.684;37.570;2023-04-09T10:14:50;11.30;;;7.77;;
70216;SDS011;65567;55.684;37.570;2023-04-09T10:17:20;13.30;;;8.05;;
70216;SDS011;65567;55.684;37.570;2023-04-09T10:19:48;11.75;;;7.72;;
70216;SDS011;65567;55.684;37.570;2023-04-09T10:22:26;11.60;;;7.40;;
70216;SDS011;65567;55.684;37.570;2023-04-09T10:24:56;11.63;;;7.28;;
70216;SDS011;65567;55.684;37.570;2023-04-09T10:27:22;11.35;;;8.18;;
70216;SDS011;65567;55.684;37.570;2023-04-09T10:29:48;12.90;;;8.25;;
70216;SDS011;65567;55.684;37.570;2023-04-09T10:32:19;11.82;;;7.38;;
70216;SDS011;65567;55.684;37.570;2023-04-09T10:34:48;12.27;;;7.57;;
70216;SDS011;65567;55.684;37.570;2023-04-09T10:37:15;13.52;;;7.38;;
70216;SDS011;65567;55.684;37.570;2023-04-09T10:39:48;12.52;;;7.93;;
70216;SDS011;65567;55.684;37.570;2023-04-09T10:42:48;15.98;;;8.60;;
70216;SDS011;65567;55.684;37.570;2023-04-09T10:45:12;7.78;;;4.70;;
70216;SDS011;65567;55.684;37.570;2023-04-09T10:47:41;13.63;;;9.18;;
70216;SDS011;65567;55.684;37.570;2023-04-09T10:50:41;11.38;;;6.82;;
70216;SDS011;65567;55.684;37.570;2023-04-09T10:53:01;12.68;;;7.40;;
70216;SDS011;65567;55.684;37.570;2023-04-09T10:55:35;13.38;;;7.65;;
70216;SDS011;65567;55.684;37.570;2023-04-09T10:58:06;14.95;;;8.52;;
70216;SDS011;65567;55.684;37.570;2023-04-09T11:00:37;14.05;;;8.18;;
70216;SDS011;65567;55.684;37.570;2023-04-09T11:05:50;11.75;;;7.65;;
70216;SDS011;65567;55.684;37.570;2023-04-09T11:08:36;13.13;;;8.27;;
70216;SDS011;65567;55.684;37.570;2023-04-09T11:11:03;10.00;;;6.18;;
70216;SDS011;65567;55.684;37.570;2023-04-09T11:13:30;15.02;;;8.95;;
70216;SDS011;65567;55.684;37.570;2023-04-09T11:15:57;13.25;;;8.52;;
70216;SDS011;65567;55.684;37.570;2023-04-09T11:18:25;10.32;;;5.50;;
70216;SDS011;65567;55.684;37.570;2023-04-09T11:20:56;12.18;;;8.18;;
70216;SDS011;65567;55.684;37.570;2023-04-09T11:23:27;14.50;;;8.73;;
70216;SDS011;65567;55.684;37.570;2023-04-09T11:25:54;13.45;;;8.43;;
70216;SDS011;65567;55.684;37.570;2023-04-09T11:28:21;11.15;;;8.20;;
70216;SDS011;65567;55.684;37.570;2023-04-09T11:30:51;11.00;;;6.57;;
70216;SDS011;65567;55.684;37.570;2023-04-09T11:33:17;9.77;;;5.70;;
70216;SDS011;65567;55.684;37.570;2023-04-09T11:35:44;14.95;;;8.63;;
70216;SDS011;65567;55.684;37.570;2023-04-09T11:38:10;10.82;;;7.18;;
70216;SDS011;65567;55.684;37.570;2023-04-09T11:40:38;12.35;;;7.95;;
70216;SDS011;65567;55.684;37.570;2023-04-09T11:43:09;15.43;;;8.65;;
70216;SDS011;65567;55.684;37.570;2023-04-09T11:45:35;11.20;;;8.35;;
70216;SDS011;65567;55.684;37.570;2023-04-09T11:48:02;14.70;;;9.20;;
70216;SDS011;65567;55.684;37.570;2023-04-09T11:50:28;13.95;;;8.38;;
70216;SDS011;65567;55.684;37.570;2023-04-09T11:52:56;13.15;;;7.75;;
70216;SDS011;65567;55.684;37.570;2023-04-09T11:55:26;10.98;;;8.07;;
70216;SDS011;65567;55.684;37.570;2023-04-09T11:57:55;11.30;;;8.50;;
70216;SDS011;65567;55.684;37.570;2023-04-09T12:00:24;13.75;;;8.85;;
70216;SDS011;65567;55.684;37.570;2023-04-09T12:02:57;14.88;;;8.95;;
70216;SDS011;65567;55.684;37.570;2023-04-09T12:05:32;17.23;;;8.18;;
70216;SDS011;65567;55.684;37.570;2023-04-09T12:08:03;16.13;;;9.05;;
70216;SDS011;65567;55.684;37.570;2023-04-09T12:10:33;21.60;;;9.63;;
70216;SDS011;65567;55.684;37.570;2023-04-09T12:13:08;19.77;;;9.35;;
70216;SDS011;65567;55.684;37.570;2023-04-09T12:15:35;12.52;;;8.50;;
70216;SDS011;65567;55.684;37.570;2023-04-09T12:18:02;13.70;;;8.95;;
70216;SDS011;65567;55.684;37.570;2023-04-09T12:20:33;12.57;;;8.98;;
70216;SDS011;65567;55.684;37.570;2023-04-09T12:23:10;12.38;;;8.60;;
70216;SDS011;65567;55.684;37.570;2023-04-09T12:25:40;16.70;;;8.38;;
70216;SDS011;65567;55.684;37.570;2023-04-09T12:28:08;14.23;;;8.57;;
70216;SDS011;65567;55.684;37.570;2023-04-09T12:30:36;17.15;;;8.98;;
70216;SDS011;65567;55.684;37.570;2023-04-09T12:33:02;24.48;;;8.95;;
70216;SDS011;65567;55.684;37.570;2023-04-09T12:35:29;13.60;;;8.70;;
70216;SDS011;65567;55.684;37.570;2023-04-09T12:37:55;13.60;;;7.70;;
70216;SDS011;65567;55.684;37.570;2023-04-09T12:40:21;13.10;;;8.00;;
70216;SDS011;65567;55.684;37.570;2023-04-09T12:42:47;12.85;;;8.25;;
70216;SDS011;65567;55.684;37.570;2023-04-09T12:45:14;16.05;;;8.90;;
70216;SDS011;65567;55.684;37.570;2023-04-09T12:47:42;12.98;;;8.98;;
70216;SDS011;65567;55.684;37.570;2023-04-09T12:50:09;12.40;;;8.00;;
70216;SDS011;65567;55.684;37.570;2023-04-09T12:52:36;12.05;;;9.00;;
70216;SDS011;65567;55.684;37.570;2023-04-09T12:55:03;11.90;;;7.50;;
70216;SDS011;65567;55.684;37.570;2023-04-09T12:57:30;13.73;;;8.27;;
70216;SDS011;65567;55.684;37.570;2023-04-09T12:59:56;10.57;;;7.90;;
70216;SDS011;65567;55.684;37.570;2023-04-09T13:02:23;12.35;;;8.68;;
70216;SDS011;65567;55.684;37.570;2023-04-09T13:04:49;11.95;;;7.70;;
70216;SDS011;65567;55.684;37.570;2023-04-09T13:07:16;13.95;;;8.13;;
70216;SDS011;65567;55.684;37.570;2023-04-09T13:09:46;11.73;;;8.20;;
70216;SDS011;65567;55.684;37.570;2023-04-09T13:12:15;12.85;;;8.32;;
70216;SDS011;65567;55.684;37.570;2023-04-09T13:14:42;18.88;;;8.48;;
70216;SDS011;65567;55.684;37.570;2023-04-09T13:17:09;14.98;;;8.77;;
70216;SDS011;65567;55.684;37.570;2023-04-09T13:19:35;13.20;;;8.55;;
70216;SDS011;65567;55.684;37.570;2023-04-09T13:22:01;13.48;;;8.45;;
70216;SDS011;65567;55.684;37.570;2023-04-09T13:24:27;18.00;;;8.98;;
70216;SDS011;65567;55.684;37.570;2023-04-09T13:26:53;15.27;;;9.27;;
70216;SDS011;65567;55.684;37.570;2023-04-09T13:29:18;13.32;;;8.63;;
70216;SDS011;65567;55.684;37.570;2023-04-09T13:31:44;15.38;;;9.73;;
70216;SDS011;65567;55.684;37.570;2023-04-09T13:34:10;13.00;;;8.13;;
70216;SDS011;65567;55.684;37.570;2023-04-09T13:36:36;13.85;;;8.20;;
70216;SDS011;65567;55.684;37.570;2023-04-09T13:39:02;16.67;;;8.60;;
70216;SDS011;65567;55.684;37.570;2023-04-09T13:41:31;15.60;;;9.68;;
70216;SDS011;65567;55.684;37.570;2023-04-09T13:43:58;15.93;;;9.48;;
70216;SDS011;65567;55.684;37.570;2023-04-09T13:46:25;17.90;;;8.85;;
70216;SDS011;65567;55.684;37.570;2023-04-09T13:48:52;18.50;;;9.25;;
70216;SDS011;65567;55.684;37.570;2023-04-09T13:51:20;19.40;;;8.73;;
70216;SDS011;65567;55.684;37.570;2023-04-09T13:53:46;16.60;;;9.40;;
70216;SDS011;65567;55.684;37.570;2023-04-09T13:56:13;17.90;;;9.90;;
70216;SDS011;65567;55.684;37.570;2023-04-09T13:58:39;13.93;;;8.32;;
70216;SDS011;65567;55.684;37.570;2023-04-09T14:01:06;10.70;;;8.50;;
70216;SDS011;65567;55.684;37.570;2023-04-09T14:03:32;12.23;;;8.80;;
70216;SDS011;65567;55.684;37.570;2023-04-09T14:05:57;13.48;;;9.57;;
70216;SDS011;65567;55.684;37.570;2023-04-09T14:08:23;14.18;;;8.98;;
70216;SDS011;65567;55.684;37.570;2023-04-09T14:10:49;14.07;;;10.00;;
70216;SDS011;65567;55.684;37.570;2023-04-09T14:13:15;12.75;;;9.52;;
70216;SDS011;65567;55.684;37.570;2023-04-09T14:15:41;13.73;;;9.60;;
70216;SDS011;65567;55.684;37.570;2023-04-09T14:18:09;13.65;;;9.70;;
70216;SDS011;65567;55.684;37.570;2023-04-09T14:20:35;15.70;;;10.27;;
70216;SDS011;65567;55.684;37.570;2023-04-09T14:23:02;15.60;;;10.07;;
70216;SDS011;65567;55.684;37.570;2023-04-09T14:25:28;13.55;;;10.23;;
70216;SDS011;65567;55.684;37.570;2023-04-09T14:27:54;12.55;;;9.15;;
70216;SDS011;65567;55.684;37.570;2023-04-09T14:30:21;12.90;;;8.48;;
70216;SDS011;65567;55.684;37.570;2023-04-09T14:32:47;13.57;;;8.95;;
70216;SDS011;65567;55.684;37.570;2023-04-09T14:35:13;11.68;;;8.25;;